Time;durP1;ratioP1;P1;durP2;ratioP2;P2;SDS_P1;SDS_P2;PMS_P1;PMS_P2;Temp;Humidity;BMP_temperature;BMP_pressure;BME280_temperature;BME280_humidity;BME280_pressure;Samples;Min_cycle;Max_cycle;Signal;HPM_P1;HPM_P2
2021/04/08 00:01:28;;;;;;;4.47;2.63;;;;;;;5.64;47.65;97736.06;5073915;28;20057;-77
2021/04/08 00:03:54;;;;;;;4.35;3.03;;;;;;;5.63;47.31;97749.97;5090530;28;21935;-77
2021/04/08 00:06:19;;;;;;;7.28;3.22;;;;;;;5.58;47.94;97737.63;5122797;27;20482;-76
2021/04/08 00:08:44;;;;;;;5.75;3.30;;;;;;;5.77;47.24;97745.59;5103992;27;20046;-77
2021/04/08 00:11:10;;;;;;;6.50;2.92;;;;;;;5.72;48.54;97753.13;5107208;27;20035;-77
2021/04/08 00:13:35;;;;;;;5.18;3.10;;;;;;;5.62;47.23;97753.53;5127425;27;20389;-77
2021/04/08 00:16:02;;;;;;;9.15;2.90;;;;;;;5.57;48.49;97755.91;5111955;27;20155;-77
2021/04/08 00:18:27;;;;;;;5.28;3.35;;;;;;;5.53;47.36;97747.75;5094420;27;20031;-77
2021/04/08 00:20:54;;;;;;;5.65;2.70;;;;;;;5.52;47.22;97755.69;5094008;27;20031;-77
2021/04/08 00:23:19;;;;;;;5.15;2.88;;;;;;;5.44;47.88;97754.13;5087770;27;20042;-77
2021/04/08 00:25:45;;;;;;;5.43;2.60;;;;;;;5.42;47.58;97758.69;5130195;27;20038;-77
2021/04/08 00:28:10;;;;;;;4.10;2.50;;;;;;;5.52;46.09;97763.44;5076151;27;20038;-77
2021/04/08 00:30:45;;;;;;;5.35;2.67;;;;;;;5.52;45.52;97763.44;5093438;27;20416;-77
2021/04/08 00:33:10;;;;;;;;;;;;;;;5.10;46.46;97770.53;5107542;27;20035;-77
2021/04/08 00:35:36;;;;;;;4.35;2.20;;;;;;;5.52;45.47;97769.44;5104676;27;19915;-77
2021/04/08 00:38:02;;;;;;;4.63;2.72;;;;;;;5.43;45.59;97768.81;5070674;28;20247;-77
2021/04/08 00:40:27;;;;;;;4.97;2.40;;;;;;;5.54;45.51;97772.59;5091612;27;20279;-77
2021/04/08 00:42:52;;;;;;;5.65;2.85;;;;;;;5.61;45.25;97777.78;5105573;27;20039;-76
2021/04/08 00:45:18;;;;;;;5.45;2.85;;;;;;;5.57;45.74;97779.16;5111234;27;20030;-76
2021/04/08 00:47:44;;;;;;;4.10;2.67;;;;;;;5.55;45.12;97775.97;5105170;27;20090;-77
2021/04/08 00:50:10;;;;;;;5.53;2.92;;;;;;;5.53;45.84;97775.38;5094471;27;20116;-76
2021/04/08 00:52:36;;;;;;;3.47;2.45;;;;;;;5.22;46.30;97774.13;5111606;27;20027;-77
2021/04/08 00:55:03;;;;;;;4.50;2.45;;;;;;;5.37;45.54;97776.56;5093654;27;20038;-76
2021/04/08 00:57:28;;;;;;;4.25;2.63;;;;;;;5.42;45.15;97774.97;5077161;27;20034;-76
2021/04/08 00:59:54;;;;;;;5.35;2.50;;;;;;;5.48;45.54;97783.72;5095970;27;20022;-76
2021/04/08 01:02:20;;;;;;;4.15;3.00;;;;;;;5.42;45.27;97780.13;5104223;28;20575;-76
2021/04/08 01:04:45;;;;;;;5.00;2.97;;;;;;;5.50;45.40;97781.75;5067687;28;20035;-76
2021/04/08 01:07:14;;;;;;;4.97;2.92;;;;;;;5.48;45.32;97788.09;5087729;27;20471;-76
2021/04/08 01:09:39;;;;;;;6.30;3.10;;;;;;;5.43;46.07;97796.41;5106891;28;20067;-76
2021/04/08 01:12:05;;;;;;;6.30;2.80;;;;;;;5.37;45.75;97792.84;5083412;28;20482;-76
2021/04/08 01:14:31;;;;;;;5.18;2.70;;;;;;;5.43;45.35;97804.97;5106575;28;20474;-76
2021/04/08 01:17:10;;;;;;;5.38;2.92;;;;;;;5.21;45.61;97801.72;5094022;27;20105;-76
2021/04/08 01:20:03;;;;;;;4.75;3.13;;;;;;;5.11;46.39;97805.69;5110016;27;20031;-76
2021/04/08 01:22:34;;;;;;;4.88;2.75;;;;;;;5.32;48.20;97800.38;5123413;27;20047;-76
2021/04/08 01:25:10;;;;;;;5.32;2.85;;;;;;;5.25;47.66;97807.31;5094735;27;20038;-76
2021/04/08 01:27:42;;;;;;;5.55;2.78;;;;;;;4.97;48.56;97797.06;5091588;27;20031;-76
2021/04/08 01:30:07;;;;;;;5.13;2.90;;;;;;;5.02;47.52;97800.69;5105590;27;20464;-76
2021/04/08 01:32:34;;;;;;;4.05;2.58;;;;;;;4.97;47.79;97802.22;5081838;28;20050;-76
2021/04/08 01:35:02;;;;;;;5.10;3.53;;;;;;;5.04;46.09;97803.84;5102099;28;20498;-76
2021/04/08 01:37:39;;;;;;;8.90;3.13;;;;;;;4.83;46.53;97814.28;5088847;28;20024;-76
2021/04/08 01:40:07;;;;;;;5.32;3.63;;;;;;;5.03;46.16;97804.84;5093012;28;20526;-77
2021/04/08 01:42:32;;;;;;;5.88;3.38;;;;;;;5.25;45.63;97815.06;5089920;28;20116;-76
2021/04/08 01:45:02;;;;;;;4.43;2.78;;;;;;;5.05;46.83;97805.47;5092751;28;20474;-76
2021/04/08 01:47:28;;;;;;;5.43;3.00;;;;;;;5.09;47.92;97811.03;5078083;28;20545;-76
2021/04/08 01:49:54;;;;;;;5.35;2.83;;;;;;;4.91;49.11;97810.75;5088747;28;20024;-76
2021/04/08 01:52:20;;;;;;;4.60;2.40;;;;;;;4.79;49.62;97820.81;5110385;28;20063;-76
2021/04/08 01:54:52;;;;;;;5.07;2.85;;;;;;;4.44;49.46;97815.66;5092910;28;20030;-76
2021/04/08 01:57:19;;;;;;;6.32;3.47;;;;;;;4.66;48.77;97814.59;5077110;28;20394;-76
2021/04/08 01:59:45;;;;;;;5.25;2.92;;;;;;;4.59;48.34;97813.78;5093759;28;20027;-76
2021/04/08 02:02:12;;;;;;;6.82;3.20;;;;;;;4.53;47.93;97811.16;5076894;28;20031;-76
2021/04/08 02:04:38;;;;;;;7.38;3.67;;;;;;;4.65;46.94;97813.00;5105089;28;20028;-76
2021/04/08 02:07:04;;;;;;;6.22;3.63;;;;;;;4.58;47.31;97814.75;5108035;28;20027;-76
2021/04/08 02:09:30;;;;;;;6.40;2.88;;;;;;;4.63;46.86;97812.41;5074938;28;20478;-76
2021/04/08 02:11:56;;;;;;;5.82;3.17;;;;;;;4.55;47.07;97812.53;5092537;28;20084;-76
2021/04/08 02:14:22;;;;;;;7.63;2.88;;;;;;;4.63;47.78;97814.97;5093223;28;20076;-76
2021/04/08 02:16:49;;;;;;;6.85;2.83;;;;;;;4.47;48.41;97818.66;5110233;28;20059;-76
2021/04/08 02:19:16;;;;;;;5.45;3.55;;;;;;;4.22;49.56;97820.88;5110262;28;20486;-76
2021/04/08 02:21:42;;;;;;;7.10;2.65;;;;;;;4.04;50.31;97818.72;5093463;28;20033;-76
2021/04/08 02:24:11;;;;;;;6.45;3.10;;;;;;;3.82;50.39;97828.28;5093029;28;20027;-76
2021/04/08 02:26:44;;;;;;;6.55;3.47;;;;;;;3.61;50.74;97823.13;5093805;28;20682;-76
2021/04/08 02:29:11;;;;;;;6.35;3.38;;;;;;;3.55;51.75;97825.44;5093466;28;20027;-76
2021/04/08 02:31:37;;;;;;;4.15;2.95;;;;;;;3.42;52.42;97830.44;5110559;28;20447;-76
2021/04/08 02:34:04;;;;;;;6.20;3.08;;;;;;;3.28;52.09;97828.72;5108058;28;20058;-76
2021/04/08 02:36:30;;;;;;;6.25;3.00;;;;;;;3.40;52.26;97822.13;5079956;28;20267;-76
2021/04/08 02:38:55;;;;;;;7.93;4.00;;;;;;;3.33;52.51;97821.25;5096815;28;20486;-76
2021/04/08 02:41:21;;;;;;;5.95;3.38;;;;;;;3.22;53.00;97826.88;5075939;28;20401;-76
2021/04/08 02:43:46;;;;;;;6.47;3.63;;;;;;;3.19;53.26;97826.25;5108556;27;20043;-76
2021/04/08 02:46:11;;;;;;;5.70;3.40;;;;;;;3.09;53.05;97823.16;5089877;27;20047;-76
2021/04/08 02:48:37;;;;;;;5.60;3.60;;;;;;;3.10;52.94;97827.34;5080093;27;20381;-76
2021/04/08 02:51:07;;;;;;;6.70;3.60;;;;;;;2.91;53.25;97833.03;5112577;27;20096;-76
2021/04/08 02:53:52;;;;;;;7.80;3.83;;;;;;;2.73;53.33;97825.69;5091355;27;20054;-76
2021/04/08 02:56:29;;;;;;;10.15;4.85;;;;;;;2.68;53.63;97828.78;5089653;27;20054;-76
2021/04/08 02:58:58;;;;;;;7.93;4.32;;;;;;;2.76;53.56;97830.44;5064203;27;20109;-76
2021/04/08 03:01:26;;;;;;;7.30;4.25;;;;;;;2.77;54.19;97838.00;5106323;27;20433;-76
2021/04/08 03:03:56;;;;;;;6.10;3.70;;;;;;;2.68;53.96;97839.06;5096085;27;20034;-76
2021/04/08 03:06:23;;;;;;;6.95;3.70;;;;;;;2.83;53.73;97846.78;5093604;27;20031;-76
2021/04/08 03:08:51;;;;;;;6.18;3.97;;;;;;;2.81;53.22;97848.72;5080132;28;20501;-76
2021/04/08 03:11:25;;;;;;;6.05;3.85;;;;;;;2.70;53.14;97849.97;5095039;27;20042;-76
2021/04/08 03:13:51;;;;;;;7.93;3.88;;;;;;;2.85;53.09;97851.75;5081793;27;20034;-76
2021/04/08 03:16:19;;;;;;;7.20;3.90;;;;;;;2.71;53.74;97854.16;5073076;28;20055;-76
2021/04/08 03:18:45;;;;;;;7.43;3.22;;;;;;;2.72;53.95;97850.59;5106265;27;20066;-76
2021/04/08 03:21:11;;;;;;;7.55;3.70;;;;;;;2.76;53.82;97844.13;5089052;27;20122;-76
2021/04/08 03:23:37;;;;;;;6.82;3.90;;;;;;;2.73;54.16;97852.19;5103062;28;20557;-76
2021/04/08 03:26:03;;;;;;;5.78;3.55;;;;;;;2.70;54.29;97855.09;5093962;28;20055;-76
2021/04/08 03:28:29;;;;;;;7.97;3.95;;;;;;;2.62;54.64;97850.88;5089527;28;20024;-76
2021/04/08 03:30:55;;;;;;;7.93;3.85;;;;;;;2.80;53.93;97855.66;5080913;27;20031;-76
2021/04/08 03:33:21;;;;;;;8.15;3.75;;;;;;;2.70;53.95;97844.81;5085793;27;20100;-76
2021/04/08 03:35:48;;;;;;;11.70;4.05;;;;;;;2.60;54.57;97846.84;5087522;28;20097;-76
2021/04/08 03:38:18;;;;;;;7.60;3.17;;;;;;;2.43;54.17;97848.78;5085784;28;20234;-76
2021/04/08 03:40:44;;;;;;;7.50;3.90;;;;;;;2.60;54.33;97864.84;5089156;28;20394;-76
2021/04/08 03:43:11;;;;;;;7.78;3.42;;;;;;;2.57;54.24;97862.63;5094253;27;20067;-76
2021/04/08 03:45:37;;;;;;;7.60;4.15;;;;;;;2.62;54.32;97873.19;5109438;28;20451;-76
2021/04/08 03:48:03;;;;;;;7.28;3.75;;;;;;;2.57;54.37;97872.91;5092425;28;20042;-76
2021/04/08 03:50:29;;;;;;;5.78;3.72;;;;;;;2.56;54.42;97861.06;5089462;27;20041;-76
2021/04/08 03:52:55;;;;;;;5.57;3.63;;;;;;;2.61;54.25;97861.31;5074364;28;20102;-76
2021/04/08 03:55:21;;;;;;;9.60;4.28;;;;;;;2.69;53.81;97858.69;5073120;27;20392;-76
2021/04/08 03:57:47;;;;;;;8.88;4.38;;;;;;;2.68;54.18;97849.34;5095911;27;20035;-76
2021/04/08 04:00:13;;;;;;;8.57;4.15;;;;;;;2.62;54.52;97850.03;5095800;27;20417;-76
2021/04/08 04:02:40;;;;;;;7.45;3.95;;;;;;;2.59;54.33;97860.72;5067628;27;20028;-76
2021/04/08 04:05:06;;;;;;;10.05;5.32;;;;;;;2.49;55.03;97860.94;5112566;27;20039;-76
2021/04/08 04:07:34;;;;;;;10.77;4.85;;;;;;;2.42;55.39;97860.84;5090760;27;20067;-76
2021/04/08 04:10:00;;;;;;;9.38;4.65;;;;;;;2.40;55.44;97864.59;5075657;28;20038;-76
2021/04/08 04:12:26;;;;;;;8.43;4.88;;;;;;;2.50;55.17;97869.44;5075253;27;20031;-76
2021/04/08 04:14:53;;;;;;;10.50;4.90;;;;;;;2.40;55.02;97859.44;5084453;27;20074;-76
2021/04/08 04:17:27;;;;;;;7.93;4.35;;;;;;;2.24;55.73;97860.38;5105120;27;20394;-76
2021/04/08 04:19:53;;;;;;;10.13;4.75;;;;;;;2.42;55.71;97865.19;5082652;28;20040;-76
2021/04/08 04:22:19;;;;;;;0.00;0.00;;;;;;;2.32;56.41;97868.00;5063525;28;20073;-76
2021/04/08 04:24:44;;;;;;;7.28;4.28;;;;;;;2.41;55.99;97877.22;5074294;28;20027;-76
2021/04/08 04:27:10;;;;;;;9.90;5.28;;;;;;;2.38;56.04;97874.22;5116230;27;20031;-76
2021/04/08 04:29:35;;;;;;;8.57;4.85;;;;;;;2.32;56.14;97870.56;5109398;28;20028;-76
2021/04/08 04:32:01;;;;;;;8.75;4.88;;;;;;;2.30;56.17;97872.53;5108966;28;20028;-76
2021/04/08 04:34:26;;;;;;;9.57;4.95;;;;;;;2.26;56.10;97876.41;5091106;28;20308;-76
2021/04/08 04:36:51;;;;;;;8.85;4.53;;;;;;;2.34;55.45;97881.47;5111787;27;20482;-76
2021/04/08 04:39:17;;;;;;;9.93;4.65;;;;;;;2.23;56.08;97875.00;5105700;28;20304;-76
2021/04/08 04:41:42;;;;;;;9.63;4.70;;;;;;;2.21;56.19;97874.38;5091926;27;20031;-76
2021/04/08 04:44:07;;;;;;;9.95;5.60;;;;;;;2.24;55.73;97878.34;5085390;28;20025;-76
2021/04/08 04:46:33;;;;;;;10.77;5.18;;;;;;;2.19;55.83;97880.63;5093659;28;20032;-76
2021/04/08 04:48:59;;;;;;;11.13;5.60;;;;;;;2.14;56.49;97883.75;5092913;27;20027;-76
2021/04/08 04:51:25;;;;;;;9.45;4.97;;;;;;;2.08;56.45;97888.78;5111587;27;20513;-76
2021/04/08 04:53:52;;;;;;;8.80;5.05;;;;;;;2.03;56.68;97887.50;5094167;27;20030;-76
2021/04/08 04:56:18;;;;;;;10.52;5.90;;;;;;;2.07;57.45;97900.78;5056297;28;20062;-76
2021/04/08 04:58:43;;;;;;;9.07;5.32;;;;;;;2.02;57.04;97903.91;5105814;27;20027;-76
2021/04/08 05:01:08;;;;;;;9.10;4.93;;;;;;;2.10;56.51;97908.16;5093572;27;20141;-76
2021/04/08 05:03:37;;;;;;;8.63;5.13;;;;;;;1.90;56.87;97901.88;5078691;27;20031;-76
2021/04/08 05:06:02;;;;;;;7.20;4.80;;;;;;;2.06;57.03;97905.13;5091992;27;20031;-76
2021/04/08 05:08:28;;;;;;;8.40;4.88;;;;;;;2.15;56.48;97912.78;5114308;27;20496;-76
2021/04/08 05:10:53;;;;;;;10.05;5.28;;;;;;;2.15;56.66;97910.22;5107687;27;20358;-76
2021/04/08 05:13:18;;;;;;;11.35;6.35;;;;;;;2.19;57.11;97912.28;5088464;27;20050;-76
2021/04/08 05:15:44;;;;;;;7.55;4.85;;;;;;;2.28;56.96;97922.47;5086949;27;20041;-76
2021/04/08 05:18:09;;;;;;;8.30;5.22;;;;;;;2.31;57.49;97915.22;5075256;27;20467;-76
2021/04/08 05:20:34;;;;;;;10.73;6.00;;;;;;;2.28;57.51;97910.44;5109515;27;20498;-76
2021/04/08 05:23:00;;;;;;;10.85;6.28;;;;;;;2.44;57.34;97919.78;5075927;27;20393;-76
2021/04/08 05:25:28;;;;;;;10.45;6.20;;;;;;;2.38;56.61;97920.47;5095573;28;20397;-76
2021/04/08 05:27:53;;;;;;;10.52;5.93;;;;;;;2.57;57.06;97925.16;5092849;27;20129;-76
2021/04/08 05:30:19;;;;;;;8.70;5.70;;;;;;;2.58;56.38;97915.66;5076893;28;20106;-76
2021/04/08 05:32:44;;;;;;;10.73;5.95;;;;;;;2.70;56.47;97914.25;5120860;27;20072;-76
2021/04/08 05:35:10;;;;;;;9.80;6.35;;;;;;;2.76;56.48;97933.31;5093721;27;20020;-76
2021/04/08 05:37:35;;;;;;;11.60;6.18;;;;;;;2.89;56.02;97933.50;5111023;28;20050;-76
2021/04/08 05:40:01;;;;;;;11.30;6.25;;;;;;;2.97;55.78;97924.94;5111181;28;20046;-76
2021/04/08 05:42:26;;;;;;;12.00;6.30;;;;;;;3.10;55.17;97930.25;5106665;28;20036;-77
2021/04/08 05:44:52;;;;;;;11.30;6.60;;;;;;;3.14;55.86;97930.69;5109249;28;20034;-76
2021/04/08 05:47:17;;;;;;;14.07;6.68;;;;;;;3.15;55.73;97927.94;5111009;28;20392;-76
2021/04/08 05:49:42;;;;;;;9.88;6.25;;;;;;;3.22;55.48;97940.88;5110809;28;20027;-76
2021/04/08 05:52:08;;;;;;;11.73;5.90;;;;;;;3.26;55.17;97944.72;5093659;28;20020;-76
2021/04/08 05:54:33;;;;;;;11.27;6.53;;;;;;;3.39;54.92;97944.06;5072222;28;20364;-76
2021/04/08 05:56:59;;;;;;;11.45;6.07;;;;;;;3.42;54.28;97940.34;5100747;28;20027;-76
2021/04/08 05:59:24;;;;;;;13.90;7.35;;;;;;;3.53;54.70;97950.19;5110432;28;20039;-76
2021/04/08 06:01:50;;;;;;;10.75;6.03;;;;;;;3.48;55.06;97950.75;5089054;28;20080;-77
2021/04/08 06:04:15;;;;;;;11.13;6.53;;;;;;;3.47;55.10;97951.69;5105826;28;20051;-76
2021/04/08 06:06:40;;;;;;;13.98;7.57;;;;;;;3.63;54.65;97952.47;5110601;28;20042;-76
2021/04/08 06:09:06;;;;;;;13.93;7.95;;;;;;;3.67;55.12;97948.59;5109056;28;20493;-76
2021/04/08 06:11:31;;;;;;;12.18;7.47;;;;;;;3.90;53.67;97961.31;5110514;28;20826;-76
2021/04/08 06:13:57;;;;;;;11.55;7.10;;;;;;;3.95;53.47;97958.97;5128152;28;20026;-76
2021/04/08 06:16:22;;;;;;;12.35;6.65;;;;;;;4.00;53.36;97961.03;5096501;28;20047;-76
2021/04/08 06:18:48;;;;;;;14.10;7.53;;;;;;;4.06;53.48;97955.13;5111129;27;20035;-76
2021/04/08 06:21:13;;;;;;;18.50;9.50;;;;;;;4.11;53.40;97963.09;5114405;27;20039;-76
2021/04/08 06:23:39;;;;;;;13.32;8.10;;;;;;;4.18;53.15;97968.31;5113966;27;20107;-76
2021/04/08 06:26:04;;;;;;;9.77;6.03;;;;;;;4.25;51.29;97959.69;5088542;28;20086;-76
2021/04/08 06:28:29;;;;;;;9.95;6.25;;;;;;;4.27;51.94;97965.47;5079631;27;20521;-76
2021/04/08 06:30:55;;;;;;;11.90;6.40;;;;;;;4.30;51.92;97961.69;5110712;28;20097;-76
2021/04/08 06:33:20;;;;;;;12.38;6.38;;;;;;;4.41;51.98;97968.16;5095542;27;20126;-76
2021/04/08 06:35:45;;;;;;;8.60;5.57;;;;;;;4.41;51.01;97966.38;5075289;28;20038;-76
2021/04/08 06:38:11;;;;;;;13.77;6.20;;;;;;;4.40;50.88;97972.50;5077777;27;20062;-76
2021/04/08 06:40:36;;;;;;;10.05;6.00;;;;;;;4.52;50.32;97965.06;5132893;27;20027;-76
2021/04/08 06:43:02;;;;;;;9.50;5.88;;;;;;;4.58;50.56;97966.13;5113328;27;20485;-76
2021/04/08 06:45:30;;;;;;;12.40;5.97;;;;;;;4.39;50.77;97975.28;5092621;27;20054;-77
2021/04/08 06:48:11;;;;;;;10.23;6.22;;;;;;;4.22;50.54;97974.72;5083170;27;20066;-77
2021/04/08 06:50:38;;;;;;;11.50;6.68;;;;;;;4.50;50.48;97972.19;5110725;28;20034;-76
2021/04/08 06:53:06;;;;;;;10.07;6.10;;;;;;;4.56;50.91;97974.03;5076591;28;20469;-76
2021/04/08 06:55:31;;;;;;;13.23;6.35;;;;;;;4.56;50.55;97971.47;5110061;28;20116;-76
2021/04/08 06:57:58;;;;;;;11.80;6.82;;;;;;;4.68;50.24;97974.34;5094679;27;20060;-76
2021/04/08 07:00:24;;;;;;;11.32;6.68;;;;;;;4.89;49.96;97973.50;5096602;27;20038;-77
2021/04/08 07:02:49;;;;;;;16.50;7.47;;;;;;;5.08;49.51;97974.63;5110006;28;20027;-77
2021/04/08 07:05:15;;;;;;;12.00;6.47;;;;;;;5.31;49.14;97978.72;5110868;28;20019;-77
2021/04/08 07:07:40;;;;;;;10.85;6.75;;;;;;;5.46;47.65;97978.59;5078540;28;20098;-77
2021/04/08 07:10:06;;;;;;;13.30;6.65;;;;;;;5.69;47.52;97986.06;5080531;27;20031;-77
2021/04/08 07:12:35;;;;;;;12.18;6.20;;;;;;;5.80;46.93;97983.72;5114082;27;20414;-77
2021/04/08 07:15:06;;;;;;;10.60;6.68;;;;;;;5.88;47.05;97984.53;5095614;27;20038;-77
2021/04/08 07:17:31;;;;;;;12.07;6.80;;;;;;;6.12;46.78;97985.84;5098414;27;20030;-77
2021/04/08 07:19:57;;;;;;;12.45;6.60;;;;;;;5.96;46.76;97980.03;5080608;27;20091;-77
2021/04/08 07:22:23;;;;;;;9.65;5.90;;;;;;;5.87;47.16;97993.28;5075198;28;20031;-77
2021/04/08 07:24:49;;;;;;;10.85;5.75;;;;;;;5.87;47.12;97998.47;5103581;28;20031;-77
2021/04/08 07:27:21;;;;;;;10.32;6.07;;;;;;;5.87;47.12;98003.63;5080941;27;20058;-77
2021/04/08 07:29:56;;;;;;;11.45;6.43;;;;;;;5.63;47.82;97995.38;5093794;27;20359;-77
2021/04/08 07:32:31;;;;;;;12.27;7.18;;;;;;;5.73;47.20;98008.75;5087096;28;20101;-77
2021/04/08 07:35:12;;;;;;;10.73;6.30;;;;;;;5.82;46.48;98009.38;5097203;27;20027;-77
2021/04/08 07:37:37;;;;;;;9.65;6.15;;;;;;;6.20;47.04;97993.41;5093697;28;20067;-77
2021/04/08 07:40:13;;;;;;;8.70;6.00;;;;;;;6.15;46.12;98012.09;5094073;28;20066;-77
2021/04/08 07:42:38;;;;;;;10.13;6.03;;;;;;;6.32;45.19;98007.38;5112337;28;20066;-77
2021/04/08 07:45:05;;;;;;;10.35;5.97;;;;;;;6.32;46.29;98012.56;5080129;27;20490;-77
2021/04/08 07:47:33;;;;;;;10.48;5.80;;;;;;;6.52;46.56;98015.16;5111006;28;20114;-77
2021/04/08 07:50:04;;;;;;;10.68;5.88;;;;;;;6.53;45.20;98016.75;5102940;27;20428;-77
2021/04/08 07:52:39;;;;;;;11.43;6.18;;;;;;;6.56;44.98;98021.53;5096451;27;20076;-77
2021/04/08 07:55:21;;;;;;;12.25;6.30;;;;;;;6.76;43.96;98028.53;5079871;27;20011;-77
2021/04/08 07:58:00;;;;;;;11.23;6.05;;;;;;;7.07;44.12;98021.94;5095420;27;20039;-77
2021/04/08 08:00:36;;;;;;;14.20;6.55;;;;;;;7.16;44.33;98033.69;5111404;28;20028;-77
2021/04/08 08:03:10;;;;;;;7.47;5.22;;;;;;;7.34;43.19;98027.09;5104943;28;20495;-77
2021/04/08 08:05:37;;;;;;;9.02;5.28;;;;;;;7.52;42.43;98035.03;5091472;28;20036;-77
2021/04/08 08:08:22;;;;;;;9.80;6.00;;;;;;;7.19;43.30;98035.88;5080808;27;20034;-77
2021/04/08 08:10:55;;;;;;;9.90;5.50;;;;;;;7.22;43.55;98032.88;5096848;27;20430;-77
2021/04/08 08:13:31;;;;;;;8.38;4.80;;;;;;;7.44;42.00;98046.41;5092545;27;20031;-77
2021/04/08 08:15:57;;;;;;;6.85;4.97;;;;;;;7.81;41.26;98048.50;5097903;27;20031;-77
2021/04/08 08:18:32;;;;;;;7.40;5.20;;;;;;;7.64;42.06;98036.00;5115617;27;20037;-77
2021/04/08 08:21:09;;;;;;;8.05;5.20;;;;;;;7.87;41.68;98032.94;5097410;27;20397;-77
2021/04/08 08:23:42;;;;;;;10.45;5.65;;;;;;;7.97;39.22;98039.47;5093068;28;20716;-77
2021/04/08 08:26:37;;;;;;;7.30;4.57;;;;;;;7.73;41.53;98038.34;5107872;28;20036;-77
2021/04/08 08:29:06;;;;;;;8.30;4.75;;;;;;;8.17;40.04;98044.56;5087765;28;20036;-77
2021/04/08 08:31:34;;;;;;;9.18;4.57;;;;;;;8.44;40.12;98043.47;5103745;28;20364;-77
2021/04/08 08:34:02;;;;;;;6.55;4.40;;;;;;;8.57;39.85;98036.63;5102935;28;20490;-77
2021/04/08 08:36:30;;;;;;;7.72;5.07;;;;;;;8.38;39.85;98040.88;5110263;27;20035;-77
2021/04/08 08:38:56;;;;;;;7.75;5.00;;;;;;;8.28;40.30;98043.13;5075061;28;20607;-77
2021/04/08 08:41:21;;;;;;;14.73;5.75;;;;;;;8.18;39.87;98038.41;5073856;28;20358;-76
2021/04/08 08:43:47;;;;;;;9.18;5.15;;;;;;;8.34;42.02;98042.28;5088372;27;20040;-76
2021/04/08 08:46:13;;;;;;;7.35;4.60;;;;;;;9.05;37.81;98043.03;5084395;27;20038;-77
2021/04/08 08:48:39;;;;;;;5.78;3.28;;;;;;;9.43;37.46;98040.31;5102402;27;20426;-76
2021/04/08 08:51:04;;;;;;;5.80;3.00;;;;;;;9.95;36.36;98039.94;5102803;27;20680;-77
2021/04/08 08:53:32;;;;;;;4.07;2.38;;;;;;;9.73;37.26;98039.59;5067795;27;20035;-76
2021/04/08 08:55:58;;;;;;;3.83;1.88;;;;;;;10.01;36.22;98033.09;5091011;27;20252;-77
2021/04/08 08:58:24;;;;;;;7.22;2.53;;;;;;;10.39;35.43;98045.03;5110555;27;20054;-76
2021/04/08 09:00:49;;;;;;;5.40;2.58;;;;;;;10.45;35.26;98034.53;5111548;27;20476;-77
2021/04/08 09:03:15;;;;;;;4.68;2.28;;;;;;;10.96;33.42;98032.34;5082941;27;20034;-76
2021/04/08 09:05:40;;;;;;;4.47;2.67;;;;;;;11.35;31.95;98031.91;5121903;27;20023;-76
2021/04/08 09:08:12;;;;;;;5.53;2.88;;;;;;;11.62;33.40;98029.63;5067231;28;20473;-76
2021/04/08 09:10:40;;;;;;;7.32;3.10;;;;;;;12.08;31.06;98040.19;5092386;27;20085;-77
2021/04/08 09:13:06;;;;;;;7.28;3.10;;;;;;;11.91;32.01;98037.50;5092354;27;20329;-77
2021/04/08 09:15:31;;;;;;;5.90;2.78;;;;;;;12.06;29.94;98037.81;5110537;27;20188;-77
2021/04/08 09:17:57;;;;;;;3.40;2.25;;;;;;;12.16;28.26;98043.22;5071945;28;20100;-77
2021/04/08 09:20:29;;;;;;;4.38;2.10;;;;;;;11.42;30.48;98038.59;5112115;27;20033;-77
2021/04/08 09:23:11;;;;;;;5.00;2.75;;;;;;;11.19;32.02;98033.38;5093705;28;20045;-77
2021/04/08 09:25:56;;;;;;;3.30;2.28;;;;;;;10.54;34.34;98026.38;5075041;28;20209;-77
2021/04/08 09:28:23;;;;;;;5.35;2.42;;;;;;;11.51;31.74;98025.22;5081891;28;20534;-77
2021/04/08 09:33:39;;;;;;;5.80;2.60;;;;;;;12.02;32.52;98030.69;5101331;28;20081;-76
2021/04/08 09:36:24;;;;;;;4.22;2.63;;;;;;;11.97;31.59;98034.00;5063771;28;20042;-77
2021/04/08 09:38:59;;;;;;;4.53;2.97;;;;;;;12.67;30.83;98024.25;5092102;28;20032;-76
2021/04/08 09:41:46;;;;;;;3.80;2.28;;;;;;;12.29;31.35;98025.72;5117062;28;20083;-76
2021/04/08 09:44:14;;;;;;;2.90;1.85;;;;;;;12.65;29.65;98026.31;5082497;28;20113;-77
2021/04/08 09:46:41;;;;;;;3.85;2.47;;;;;;;12.19;31.32;98026.31;5093673;28;20031;-77
2021/04/08 09:49:08;;;;;;;4.38;2.00;;;;;;;12.06;28.21;98037.03;5070757;28;20035;-77
2021/04/08 09:51:45;;;;;;;3.60;1.67;;;;;;;11.57;28.58;98022.47;5109925;28;20505;-77
2021/04/08 09:54:17;;;;;;;3.72;2.42;;;;;;;11.69;29.56;98016.47;5090255;27;20035;-77
2021/04/08 09:56:55;;;;;;;8.18;3.00;;;;;;;11.23;32.57;98022.28;5093101;27;20394;-77
2021/04/08 09:59:22;;;;;;;5.28;2.85;;;;;;;11.64;31.35;98017.13;5098376;27;20031;-77
2021/04/08 10:01:47;;;;;;;5.47;2.78;;;;;;;10.97;33.07;98013.09;5036345;28;20035;-76
2021/04/08 10:04:19;;;;;;;3.88;2.45;;;;;;;10.58;31.90;98012.69;5082354;27;20042;-77
2021/04/08 10:06:45;;;;;;;4.72;2.80;;;;;;;10.84;33.43;98010.72;5092289;27;20373;-76
2021/04/08 10:09:13;;;;;;;5.22;3.17;;;;;;;11.02;33.38;98005.41;5109172;27;20035;-77
2021/04/08 10:11:38;;;;;;;4.22;2.67;;;;;;;10.27;34.55;98011.91;5088122;27;20388;-77
2021/04/08 10:14:29;;;;;;;4.47;3.00;;;;;;;11.16;32.35;98007.78;5065006;27;20556;-77
2021/04/08 10:17:05;;;;;;;4.32;2.47;;;;;;;10.68;33.47;98002.53;5108822;27;20363;-77
2021/04/08 10:19:41;;;;;;;3.83;2.20;;;;;;;11.06;34.60;97998.72;5109771;27;20049;-77
2021/04/08 10:22:09;;;;;;;3.25;2.00;;;;;;;12.52;31.39;97998.66;5089995;27;20031;-76
2021/04/08 10:24:40;;;;;;;4.60;2.20;;;;;;;12.96;28.16;97998.06;5094588;27;20050;-76
2021/04/08 10:27:17;;;;;;;3.00;2.10;;;;;;;13.24;26.41;97992.69;5094577;27;20034;-77
2021/04/08 10:29:44;;;;;;;4.50;1.88;;;;;;;13.07;26.93;97994.53;5106694;27;20023;-77
2021/04/08 10:32:09;;;;;;;2.75;1.80;;;;;;;13.41;28.97;97986.66;5088323;28;20099;-76
2021/04/08 10:34:41;;;;;;;4.05;2.30;;;;;;;13.64;26.68;97993.47;5122240;27;20336;-76
2021/04/08 10:37:08;;;;;;;3.33;2.00;;;;;;;13.35;28.02;97985.81;5102727;27;20031;-77
2021/04/08 10:39:36;;;;;;;4.35;2.15;;;;;;;12.77;26.79;97985.22;5111864;27;20075;-76
2021/04/08 10:42:10;;;;;;;2.80;1.67;;;;;;;12.47;29.92;97990.75;5086731;27;20142;-76
2021/04/08 10:44:37;;;;;;;4.80;2.10;;;;;;;12.49;27.32;97993.91;5110217;27;20032;-76
2021/04/08 10:47:12;;;;;;;4.90;2.20;;;;;;;11.96;29.64;97982.81;5101664;28;20059;-76
2021/04/08 10:49:58;;;;;;;2.92;1.67;;;;;;;11.66;29.81;97983.78;5091913;28;20460;-76
2021/04/08 10:52:31;;;;;;;3.63;2.30;;;;;;;11.70;30.97;97979.69;5086981;27;20248;-76
2021/04/08 10:54:59;;;;;;;4.93;2.10;;;;;;;10.56;30.80;97978.28;5109450;28;20335;-76
2021/04/08 10:57:25;;;;;;;5.05;1.70;;;;;;;11.41;28.99;97971.84;5110047;27;20031;-76
2021/04/08 10:59:51;;;;;;;3.25;2.00;;;;;;;11.49;29.14;97977.72;5102917;27;20271;-76
2021/04/08 11:02:25;;;;;;;3.80;1.80;;;;;;;10.79;28.62;97971.50;5110333;27;20046;-77
2021/04/08 11:04:52;;;;;;;3.17;2.10;;;;;;;11.15;28.88;97972.31;5093683;27;20122;-76
2021/04/08 11:07:19;;;;;;;4.03;2.60;;;;;;;11.42;28.94;97976.00;5091789;27;20031;-76
2021/04/08 11:09:45;;;;;;;2.50;1.95;;;;;;;11.17;28.08;97962.44;5111700;27;20110;-77
2021/04/08 11:12:28;;;;;;;3.28;2.45;;;;;;;10.76;31.18;97962.34;5093564;27;20360;-76
2021/04/08 11:14:58;;;;;;;6.60;3.28;;;;;;;11.24;28.44;97970.94;5095083;27;20023;-76
2021/04/08 11:17:25;;;;;;;3.70;2.50;;;;;;;11.50;27.69;97963.63;5090608;27;20039;-77
2021/04/08 11:19:54;;;;;;;6.88;2.60;;;;;;;11.47;28.20;97956.28;5094474;27;20030;-77
2021/04/08 11:22:29;;;;;;;4.28;2.35;;;;;;;10.65;29.79;97956.09;5100068;27;20023;-77
2021/04/08 11:24:55;;;;;;;5.13;2.38;;;;;;;11.18;28.78;97958.81;5083202;27;20070;-77
2021/04/08 11:27:36;;;;;;;4.20;1.88;;;;;;;11.26;28.59;97945.44;5092681;27;20051;-76
2021/04/08 11:30:04;;;;;;;4.25;2.33;;;;;;;11.51;29.42;97950.38;5099208;27;20027;-77
2021/04/08 11:32:30;;;;;;;3.97;2.20;;;;;;;11.75;29.85;97943.25;5081287;27;20054;-76
2021/04/08 11:34:57;;;;;;;3.40;2.30;;;;;;;11.36;28.47;97943.03;5097835;28;20063;-76
2021/04/08 11:37:34;;;;;;;4.53;2.40;;;;;;;11.55;30.94;97948.09;5079807;27;20031;-76
2021/04/08 11:40:01;;;;;;;4.93;2.55;;;;;;;12.01;30.58;97940.34;5095393;27;20144;-76
2021/04/08 11:42:32;;;;;;;3.97;2.15;;;;;;;12.29;28.52;97932.50;5104545;28;20035;-76
2021/04/08 11:44:58;;;;;;;5.43;2.60;;;;;;;12.55;27.75;97938.91;5097097;27;20119;-77
2021/04/08 11:47:23;;;;;;;5.43;2.50;;;;;;;12.15;28.52;97921.56;5131334;27;20456;-77